sensor_id;sensor_type;location;lat;lon;timestamp;pressure;altitude;pressure_sealevel;temperature;humidity
18985;BME280;9626;52.552;13.436;2023-04-25T00:00:00;99949.66;;;8.34;100.00
18985;BME280;9626;52.552;13.436;2023-04-25T00:02:26;99940.72;;;8.39;100.00
18985;BME280;9626;52.552;13.436;2023-04-25T00:04:53;99945.19;;;8.37;100.00
18985;BME280;9626;52.552;13.436;2023-04-25T00:07:20;99953.09;;;8.37;100.00
18985;BME280;9626;52.552;13.436;2023-04-25T00:09:46;99948.91;;;8.27;100.00
18985;BME280;9626;52.552;13.436;2023-04-25T00:12:12;99939.22;;;8.27;100.00
18985;BME280;9626;52.552;13.436;2023-04-25T00:14:38;99933.94;;;8.29;100.00
18985;BME280;9626;52.552;13.436;2023-04-25T00:17:04;99932.03;;;8.34;100.00
18985;BME280;9626;52.552;13.436;2023-04-25T00:19:31;99925.94;;;8.32;100.00
18985;BME280;9626;52.552;13.436;2023-04-25T00:21:58;99936.63;;;8.26;100.00
18985;BME280;9626;52.552;13.436;2023-04-25T00:24:24;99938.25;;;8.32;100.00
18985;BME280;9626;52.552;13.436;2023-04-25T00:26:50;99940.94;;;8.30;100.00
18985;BME280;9626;52.552;13.436;2023-04-25T00:29:16;99933.94;;;8.29;100.00
18985;BME280;9626;52.552;13.436;2023-04-25T00:31:42;99926.00;;;8.31;100.00
18985;BME280;9626;52.552;13.436;2023-04-25T00:34:08;99939.94;;;8.36;100.00
18985;BME280;9626;52.552;13.436;2023-04-25T00:36:34;99942.56;;;8.37;100.00
18985;BME280;9626;52.552;13.436;2023-04-25T00:39:00;99931.22;;;8.32;100.00
18985;BME280;9626;52.552;13.436;2023-04-25T00:41:26;99939.06;;;8.35;100.00
18985;BME280;9626;52.552;13.436;2023-04-25T00:43:54;99938.28;;;8.30;100.00
18985;BME280;9626;52.552;13.436;2023-04-25T00:46:20;99940.94;;;8.30;100.00
18985;BME280;9626;52.552;13.436;2023-04-25T00:48:46;99947.22;;;8.24;100.00
18985;BME280;9626;52.552;13.436;2023-04-25T00:51:19;99936.75;;;8.21;100.00
18985;BME280;9626;52.552;13.436;2023-04-25T00:53:47;99924.59;;;8.12;100.00
18985;BME280;9626;52.552;13.436;2023-04-25T00:56:14;99937.75;;;8.16;100.00
18985;BME280;9626;52.552;13.436;2023-04-25T00:58:41;99930.66;;;8.18;100.00
18985;BME280;9626;52.552;13.436;2023-04-25T01:01:08;99936.75;;;8.21;100.00
18985;BME280;9626;52.552;13.436;2023-04-25T01:03:38;99925.53;;;8.11;100.00
18985;BME280;9626;52.552;13.436;2023-04-25T01:06:09;99935.94;;;8.18;100.00
18985;BME280;9626;52.552;13.436;2023-04-25T01:08:37;99921.66;;;8.28;100.00
18985;BME280;9626;52.552;13.436;2023-04-25T01:11:03;99928.00;;;8.18;100.00
18985;BME280;9626;52.552;13.436;2023-04-25T01:13:30;99921.19;;;8.09;100.00
18985;BME280;9626;52.552;13.436;2023-04-25T01:15:58;99922.16;;;8.05;100.00
18985;BME280;9626;52.552;13.436;2023-04-25T01:18:25;99928.97;;;8.13;100.00
18985;BME280;9626;52.552;13.436;2023-04-25T01:20:52;99923.72;;;8.13;100.00
18985;BME280;9626;52.552;13.436;2023-04-25T01:23:19;99914.97;;;8.11;100.00
18985;BME280;9626;52.552;13.436;2023-04-25T01:25:46;99911.41;;;8.12;100.00
18985;BME280;9626;52.552;13.436;2023-04-25T01:28:12;99917.63;;;8.11;100.00
18985;BME280;9626;52.552;13.436;2023-04-25T01:30:39;99906.22;;;8.09;100.00
18985;BME280;9626;52.552;13.436;2023-04-25T01:33:07;99919.38;;;8.11;100.00
18985;BME280;9626;52.552;13.436;2023-04-25T01:35:33;99907.97;;;8.10;100.00
18985;BME280;9626;52.552;13.436;2023-04-25T01:38:00;99913.25;;;8.10;100.00
18985;BME280;9626;52.552;13.436;2023-04-25T01:40:27;99913.16;;;8.13;100.00
18985;BME280;9626;52.552;13.436;2023-04-25T01:42:53;99917.50;;;8.16;100.00
18985;BME280;9626;52.552;13.436;2023-04-25T01:45:20;99922.13;;;8.06;100.00
18985;BME280;9626;52.552;13.436;2023-04-25T01:47:46;99925.66;;;8.05;100.00
18985;BME280;9626;52.552;13.436;2023-04-25T01:50:16;99916.97;;;8.00;100.00
18985;BME280;9626;52.552;13.436;2023-04-25T01:52:43;99920.38;;;8.05;100.00
18985;BME280;9626;52.552;13.436;2023-04-25T01:55:09;99914.06;;;8.12;100.00
18985;BME280;9626;52.552;13.436;2023-04-25T01:57:35;99916.78;;;8.09;100.00
18985;BME280;9626;52.552;13.436;2023-04-25T02:00:04;99925.56;;;8.10;100.00
18985;BME280;9626;52.552;13.436;2023-04-25T02:02:32;99922.94;;;8.08;100.00
18985;BME280;9626;52.552;13.436;2023-04-25T02:04:58;99928.22;;;8.08;100.00
18985;BME280;9626;52.552;13.436;2023-04-25T02:07:25;99920.53;;;7.99;100.00
18985;BME280;9626;52.552;13.436;2023-04-25T02:09:51;99930.06;;;8.05;100.00
18985;BME280;9626;52.552;13.436;2023-04-25T02:12:18;99922.84;;;8.13;100.00
18985;BME280;9626;52.552;13.436;2023-04-25T02:14:45;99927.25;;;8.12;100.00
18985;BME280;9626;52.552;13.436;2023-04-25T02:17:12;99917.59;;;8.13;100.00
18985;BME280;9626;52.552;13.436;2023-04-25T02:19:39;99913.16;;;8.13;100.00
18985;BME280;9626;52.552;13.436;2023-04-25T02:22:05;99920.38;;;8.05;100.00
18985;BME280;9626;52.552;13.436;2023-04-25T02:24:32;99923.00;;;8.05;100.00
18985;BME280;9626;52.552;13.436;2023-04-25T02:26:59;99925.66;;;8.05;100.00
18985;BME280;9626;52.552;13.436;2023-04-25T02:29:25;99924.13;;;7.95;100.00
18985;BME280;9626;52.552;13.436;2023-04-25T02:31:52;99914.31;;;8.02;100.00
18985;BME280;9626;52.552;13.436;2023-04-25T02:34:18;99916.25;;;7.93;100.00
18985;BME280;9626;52.552;13.436;2023-04-25T02:36:45;99917.09;;;7.94;100.00
18985;BME280;9626;52.552;13.436;2023-04-25T02:39:11;99925.91;;;7.93;100.00
18985;BME280;9626;52.552;13.436;2023-04-25T02:41:38;99920.72;;;7.90;100.00
18985;BME280;9626;52.552;13.436;2023-04-25T02:44:04;99919.06;;;7.84;100.00
18985;BME280;9626;52.552;13.436;2023-04-25T02:46:30;99921.75;;;7.83;100.00
18985;BME280;9626;52.552;13.436;2023-04-25T02:48:56;99921.72;;;7.84;100.00
18985;BME280;9626;52.552;13.436;2023-04-25T02:51:23;99922.53;;;7.86;100.00
18985;BME280;9626;52.552;13.436;2023-04-25T02:53:49;99918.88;;;7.93;100.00
18985;BME280;9626;52.552;13.436;2023-04-25T02:56:15;99919.59;;;8.00;100.00
18985;BME280;9626;52.552;13.436;2023-04-25T02:58:41;99920.53;;;7.99;100.00
18985;BME280;9626;52.552;13.436;2023-04-25T03:01:07;99916.91;;;8.03;100.00
18985;BME280;9626;52.552;13.436;2023-04-25T03:03:33;99921.50;;;7.95;100.00
18985;BME280;9626;52.552;13.436;2023-04-25T03:05:59;99917.03;;;7.97;100.00
18985;BME280;9626;52.552;13.436;2023-04-25T03:08:25;99923.31;;;7.91;100.00
18985;BME280;9626;52.552;13.436;2023-04-25T03:10:55;99929.66;;;7.83;100.00
18985;BME280;9626;52.552;13.436;2023-04-25T03:13:21;99915.69;;;7.77;100.00
18985;BME280;9626;52.552;13.436;2023-04-25T03:15:47;99919.88;;;7.86;100.00
18985;BME280;9626;52.552;13.436;2023-04-25T03:18:13;99917.09;;;7.94;100.00
18985;BME280;9626;52.552;13.436;2023-04-25T03:20:39;99920.56;;;7.96;100.00
18985;BME280;9626;52.552;13.436;2023-04-25T03:23:07;99918.03;;;7.91;100.00
18985;BME280;9626;52.552;13.436;2023-04-25T03:25:34;99931.25;;;7.90;100.00
18985;BME280;9626;52.552;13.436;2023-04-25T03:28:00;99925.28;;;7.82;100.00
18985;BME280;9626;52.552;13.436;2023-04-25T03:30:26;99922.63;;;7.82;100.00
18985;BME280;9626;52.552;13.436;2023-04-25T03:32:52;99920.88;;;7.81;100.00
18985;BME280;9626;52.552;13.436;2023-04-25T03:35:18;99915.69;;;7.77;100.00
18985;BME280;9626;52.552;13.436;2023-04-25T03:37:44;99921.84;;;7.76;100.00
18985;BME280;9626;52.552;13.436;2023-04-25T03:40:11;99926.94;;;7.86;100.00
18985;BME280;9626;52.552;13.436;2023-04-25T03:42:37;99933.09;;;7.85;100.00
18985;BME280;9626;52.552;13.436;2023-04-25T03:45:04;99924.56;;;7.73;100.00
18985;BME280;9626;52.552;13.436;2023-04-25T03:47:30;99927.06;;;7.79;100.00
18985;BME280;9626;52.552;13.436;2023-04-25T03:49:56;99925.16;;;7.86;100.00
18985;BME280;9626;52.552;13.436;2023-04-25T03:52:22;99942.84;;;7.83;100.00
18985;BME280;9626;52.552;13.436;2023-04-25T03:54:48;99926.41;;;7.68;100.00
18985;BME280;9626;52.552;13.436;2023-04-25T03:57:14;99922.00;;;7.69;100.00
18985;BME280;9626;52.552;13.436;2023-04-25T03:59:40;99931.63;;;7.71;100.00
18985;BME280;9626;52.552;13.436;2023-04-25T04:02:06;99936.84;;;7.74;100.00
18985;BME280;9626;52.552;13.436;2023-04-25T04:04:32;99935.22;;;7.67;100.00
18985;BME280;9626;52.552;13.436;2023-04-25T04:06:58;99937.81;;;7.70;100.00
18985;BME280;9626;52.552;13.436;2023-04-25T04:09:24;99947.34;;;7.76;100.00
18985;BME280;9626;52.552;13.436;2023-04-25T04:11:50;99942.19;;;7.70;100.00
18985;BME280;9626;52.552;13.436;2023-04-25T04:14:16;99942.13;;;7.73;100.00
18985;BME280;9626;52.552;13.436;2023-04-25T04:16:42;99947.22;;;7.82;100.00
18985;BME280;9626;52.552;13.436;2023-04-25T04:19:08;99950.59;;;7.89;100.00
18985;BME280;9626;52.552;13.436;2023-04-25T04:21:34;99949.84;;;7.82;100.00
18985;BME280;9626;52.552;13.436;2023-04-25T04:24:01;99950.75;;;7.83;100.00
18985;BME280;9626;52.552;13.436;2023-04-25T04:26:28;99954.13;;;7.88;100.00
18985;BME280;9626;52.552;13.436;2023-04-25T04:28:54;99950.53;;;7.92;100.00
18985;BME280;9626;52.552;13.436;2023-04-25T04:31:21;99966.34;;;7.92;100.00
18985;BME280;9626;52.552;13.436;2023-04-25T04:33:47;99957.53;;;7.93;100.00
18985;BME280;9626;52.552;13.436;2023-04-25T04:36:13;99959.16;;;8.00;100.00
18985;BME280;9626;52.552;13.436;2023-04-25T04:38:39;99963.53;;;8.01;100.00
18985;BME280;9626;52.552;13.436;2023-04-25T04:41:06;99960.28;;;7.88;100.00
18985;BME280;9626;52.552;13.436;2023-04-25T04:43:32;99958.56;;;7.86;100.00
18985;BME280;9626;52.552;13.436;2023-04-25T04:46:02;99970.66;;;7.96;100.00
18985;BME280;9626;52.552;13.436;2023-04-25T04:48:31;99965.38;;;7.96;100.00
18985;BME280;9626;52.552;13.436;2023-04-25T04:50:58;99963.84;;;7.86;100.00
18985;BME280;9626;52.552;13.436;2023-04-25T04:53:24;99968.16;;;7.90;100.00
18985;BME280;9626;52.552;13.436;2023-04-25T04:55:51;99968.13;;;7.91;100.00
18985;BME280;9626;52.552;13.436;2023-04-25T04:58:17;99968.97;;;7.92;100.00
18985;BME280;9626;52.552;13.436;2023-04-25T05:00:43;99966.22;;;7.98;100.00
18985;BME280;9626;52.552;13.436;2023-04-25T05:03:09;99967.06;;;8.02;100.00
18985;BME280;9626;52.552;13.436;2023-04-25T05:05:35;99968.00;;;7.96;100.00
18985;BME280;9626;52.552;13.436;2023-04-25T05:08:01;99969.75;;;7.97;100.00
18985;BME280;9626;52.552;13.436;2023-04-25T05:10:27;99980.22;;;8.02;100.00
18985;BME280;9626;52.552;13.436;2023-04-25T05:12:53;99971.63;;;7.92;100.00
18985;BME280;9626;52.552;13.436;2023-04-25T05:15:19;99973.28;;;7.96;100.00
18985;BME280;9626;52.552;13.436;2023-04-25T05:17:45;99969.88;;;7.92;100.00
18985;BME280;9626;52.552;13.436;2023-04-25T05:20:11;99981.09;;;8.02;100.00
18985;BME280;9626;52.552;13.436;2023-04-25T05:22:37;99977.69;;;7.95;100.00
18985;BME280;9626;52.552;13.436;2023-04-25T05:25:03;99977.81;;;7.91;100.00
18985;BME280;9626;52.552;13.436;2023-04-25T05:27:30;99977.59;;;8.00;100.00
18985;BME280;9626;52.552;13.436;2023-04-25T05:29:56;99979.19;;;8.09;100.00
18985;BME280;9626;52.552;13.436;2023-04-25T05:32:22;99976.41;;;8.15;100.00
18985;BME280;9626;52.552;13.436;2023-04-25T05:34:48;99975.47;;;8.18;100.00
18985;BME280;9626;52.552;13.436;2023-04-25T05:37:14;99975.53;;;8.16;100.00
18985;BME280;9626;52.552;13.436;2023-04-25T05:39:41;99983.47;;;8.15;100.00
18985;BME280;9626;52.552;13.436;2023-04-25T05:42:07;99984.31;;;8.17;100.00
18985;BME280;9626;52.552;13.436;2023-04-25T05:44:35;99982.56;;;8.16;100.00
18985;BME280;9626;52.552;13.436;2023-04-25T05:47:01;99987.97;;;8.09;100.00
18985;BME280;9626;52.552;13.436;2023-04-25T05:49:27;99992.59;;;7.98;100.00
18985;BME280;9626;52.552;13.436;2023-04-25T05:51:53;99990.00;;;7.97;100.00
18985;BME280;9626;52.552;13.436;2023-04-25T05:54:19;99996.88;;;8.04;100.00
18985;BME280;9626;52.552;13.436;2023-04-25T05:56:45;100002.28;;;7.98;100.00
18985;BME280;9626;52.552;13.436;2023-04-25T05:59:11;100001.41;;;7.97;100.00
18985;BME280;9626;52.552;13.436;2023-04-25T06:01:37;100014.50;;;8.00;100.00
18985;BME280;9626;52.552;13.436;2023-04-25T06:04:04;99997.97;;;7.92;100.00
18985;BME280;9626;52.552;13.436;2023-04-25T06:06:30;100007.53;;;7.99;100.00
18985;BME280;9626;52.552;13.436;2023-04-25T06:08:56;100004.00;;;7.99;100.00
18985;BME280;9626;52.552;13.436;2023-04-25T06:11:22;100010.09;;;8.02;100.00
18985;BME280;9626;52.552;13.436;2023-04-25T06:13:48;100008.25;;;8.07;100.00
18985;BME280;9626;52.552;13.436;2023-04-25T06:16:14;100015.94;;;8.18;100.00
18985;BME280;9626;52.552;13.436;2023-04-25T06:18:40;100009.69;;;8.22;100.00
18985;BME280;9626;52.552;13.436;2023-04-25T06:21:06;100020.13;;;8.27;100.00
18985;BME280;9626;52.552;13.436;2023-04-25T06:23:33;100021.81;;;8.31;100.00
18985;BME280;9626;52.552;13.436;2023-04-25T06:25:59;100019.25;;;8.28;100.00
18985;BME280;9626;52.552;13.436;2023-04-25T06:28:25;100023.91;;;8.13;100.00
18985;BME280;9626;52.552;13.436;2023-04-25T06:30:52;100025.00;;;8.05;100.00
18985;BME280;9626;52.552;13.436;2023-04-25T06:33:18;100017.81;;;8.11;100.00
18985;BME280;9626;52.552;13.436;2023-04-25T06:35:45;100020.47;;;8.11;100.00
18985;BME280;9626;52.552;13.436;2023-04-25T06:38:12;100015.03;;;8.18;100.00
18985;BME280;9626;52.552;13.436;2023-04-25T06:40:38;100016.78;;;8.19;100.00
18985;BME280;9626;52.552;13.436;2023-04-25T06:43:04;100020.38;;;8.15;100.00
18985;BME280;9626;52.552;13.436;2023-04-25T06:45:30;100012.22;;;8.27;100.00
18985;BME280;9626;52.552;13.436;2023-04-25T06:47:56;100020.22;;;8.24;100.00
18985;BME280;9626;52.552;13.436;2023-04-25T06:50:22;100024.78;;;8.16;100.00
18985;BME280;9626;52.552;13.436;2023-04-25T06:52:48;100022.13;;;8.16;100.00
18985;BME280;9626;52.552;13.436;2023-04-25T06:55:14;100019.44;;;8.19;100.00
18985;BME280;9626;52.552;13.436;2023-04-25T06:57:42;100023.03;;;8.15;100.00
18985;BME280;9626;52.552;13.436;2023-04-25T07:00:08;100018.53;;;8.20;100.00
18985;BME280;9626;52.552;13.436;2023-04-25T07:02:36;100028.13;;;8.24;100.00
18985;BME280;9626;52.552;13.436;2023-04-25T07:05:03;100025.56;;;8.21;100.00
18985;BME280;9626;52.552;13.436;2023-04-25T07:07:30;100025.59;;;8.18;100.00
18985;BME280;9626;52.552;13.436;2023-04-25T07:09:56;100031.03;;;8.08;100.00
18985;BME280;9626;52.552;13.436;2023-04-25T07:12:24;100035.59;;;8.00;100.00
18985;BME280;9626;52.552;13.436;2023-04-25T07:14:50;100039.31;;;7.91;100.00
18985;BME280;9626;52.552;13.436;2023-04-25T07:17:19;100042.78;;;7.92;100.00
18985;BME280;9626;52.552;13.436;2023-04-25T07:19:45;100041.88;;;7.94;100.00
18985;BME280;9626;52.552;13.436;2023-04-25T07:22:12;100052.28;;;8.02;100.00
18985;BME280;9626;52.552;13.436;2023-04-25T07:24:39;100048.13;;;7.89;100.00
18985;BME280;9626;52.552;13.436;2023-04-25T07:27:05;100057.78;;;7.90;100.00
18985;BME280;9626;52.552;13.436;2023-04-25T07:29:31;100054.25;;;7.91;100.00
18985;BME280;9626;52.552;13.436;2023-04-25T07:31:57;100053.94;;;8.06;100.00
18985;BME280;9626;52.552;13.436;2023-04-25T07:34:23;100059.78;;;8.24;100.00
18985;BME280;9626;52.552;13.436;2023-04-25T07:36:49;100061.31;;;8.34;100.00
18985;BME280;9626;52.552;13.436;2023-04-25T07:39:16;100070.97;;;8.35;100.00
18985;BME280;9626;52.552;13.436;2023-04-25T07:41:42;100067.66;;;8.25;100.00
18985;BME280;9626;52.552;13.436;2023-04-25T07:44:08;100074.75;;;8.22;100.00
18985;BME280;9626;52.552;13.436;2023-04-25T07:46:34;100064.97;;;8.27;100.00
18985;BME280;9626;52.552;13.436;2023-04-25T07:49:00;100075.63;;;8.22;100.00
18985;BME280;9626;52.552;13.436;2023-04-25T07:51:26;100074.81;;;8.19;100.00
18985;BME280;9626;52.552;13.436;2023-04-25T07:53:53;100074.91;;;8.12;100.00
18985;BME280;9626;52.552;13.436;2023-04-25T07:56:19;100081.88;;;8.18;100.00
18985;BME280;9626;52.552;13.436;2023-04-25T07:58:45;100086.00;;;8.30;100.00
18985;BME280;9626;52.552;13.436;2023-04-25T08:01:11;100087.66;;;8.37;100.00
18985;BME280;9626;52.552;13.436;2023-04-25T08:03:37;100092.09;;;8.34;100.00
18985;BME280;9626;52.552;13.436;2023-04-25T08:06:03;100092.16;;;8.31;100.00
18985;BME280;9626;52.552;13.436;2023-04-25T08:08:29;100086.72;;;8.38;100.00
18985;BME280;9626;52.552;13.436;2023-04-25T08:10:56;100090.00;;;8.53;100.00
18985;BME280;9626;52.552;13.436;2023-04-25T08:13:22;100093.16;;;8.70;100.00
18985;BME280;9626;52.552;13.436;2023-04-25T08:15:47;100106.97;;;8.82;100.00
18985;BME280;9626;52.552;13.436;2023-04-25T08:18:14;100098.16;;;8.83;100.00
18985;BME280;9626;52.552;13.436;2023-04-25T08:20:40;100104.38;;;8.80;100.00
18985;BME280;9626;52.552;13.436;2023-04-25T08:23:06;100106.78;;;8.91;100.00
18985;BME280;9626;52.552;13.436;2023-04-25T08:25:32;100117.69;;;8.75;100.00
18985;BME280;9626;52.552;13.436;2023-04-25T08:27:58;100114.94;;;8.80;100.00
18985;BME280;9626;52.552;13.436;2023-04-25T08:30:25;100115.59;;;8.90;100.00
18985;BME280;9626;52.552;13.436;2023-04-25T08:32:51;100118.63;;;9.12;100.00
18985;BME280;9626;52.552;13.436;2023-04-25T08:35:17;100124.22;;;8.98;100.00
18985;BME280;9626;52.552;13.436;2023-04-25T08:37:43;100137.56;;;8.92;100.00
18985;BME280;9626;52.552;13.436;2023-04-25T08:40:12;100133.28;;;8.86;96.40
18985;BME280;9626;52.552;13.436;2023-04-25T08:42:41;100141.81;;;8.99;95.99
18985;BME280;9626;52.552;13.436;2023-04-25T08:45:08;100139.75;;;9.13;99.80
18985;BME280;9626;52.552;13.436;2023-04-25T08:47:37;100144.88;;;9.20;96.38
18985;BME280;9626;52.552;13.436;2023-04-25T08:50:04;100144.78;;;9.23;91.91
18985;BME280;9626;52.552;13.436;2023-04-25T08:52:36;100143.28;;;9.12;86.46
18985;BME280;9626;52.552;13.436;2023-04-25T08:55:04;100148.81;;;9.41;82.28
18985;BME280;9626;52.552;13.436;2023-04-25T08:57:33;100158.53;;;10.45;74.73
18985;BME280;9626;52.552;13.436;2023-04-25T09:00:01;100142.38;;;10.22;75.37
18985;BME280;9626;52.552;13.436;2023-04-25T09:02:27;100154.72;;;10.56;68.73
18985;BME280;9626;52.552;13.436;2023-04-25T09:04:53;100156.91;;;10.05;66.53
18985;BME280;9626;52.552;13.436;2023-04-25T09:07:20;100156.84;;;10.08;64.91
18985;BME280;9626;52.552;13.436;2023-04-25T09:09:47;100164.25;;;10.28;63.08
18985;BME280;9626;52.552;13.436;2023-04-25T09:12:13;100160.66;;;10.31;60.80
18985;BME280;9626;52.552;13.436;2023-04-25T09:14:39;100169.50;;;10.63;56.82
18985;BME280;9626;52.552;13.436;2023-04-25T09:17:05;100172.94;;;10.67;56.95
18985;BME280;9626;52.552;13.436;2023-04-25T09:19:35;100174.84;;;10.28;58.48
18985;BME280;9626;52.552;13.436;2023-04-25T09:22:03;100186.28;;;10.29;59.09
18985;BME280;9626;52.552;13.436;2023-04-25T09:24:39;100185.63;;;10.21;59.00
18985;BME280;9626;52.552;13.436;2023-04-25T09:27:20;100186.81;;;10.07;60.49
18985;BME280;9626;52.552;13.436;2023-04-25T09:29:57;100186.09;;;10.70;58.05
18985;BME280;9626;52.552;13.436;2023-04-25T09:32:25;100184.28;;;10.72;57.79
18985;BME280;9626;52.552;13.436;2023-04-25T09:34:55;100186.28;;;10.63;57.68
18985;BME280;9626;52.552;13.436;2023-04-25T09:37:29;100190.41;;;10.06;59.57
18985;BME280;9626;52.552;13.436;2023-04-25T09:39:58;100191.06;;;10.14;59.03
18985;BME280;9626;52.552;13.436;2023-04-25T09:42:31;100196.59;;;10.05;57.61
18985;BME280;9626;52.552;13.436;2023-04-25T09:45:00;100196.47;;;10.10;58.14
18985;BME280;9626;52.552;13.436;2023-04-25T09:47:29;100190.63;;;9.97;56.81
18985;BME280;9626;52.552;13.436;2023-04-25T09:49:55;100191.50;;;9.97;55.20
18985;BME280;9626;52.552;13.436;2023-04-25T09:52:23;100206.50;;;9.97;54.47
18985;BME280;9626;52.552;13.436;2023-04-25T09:54:50;100195.94;;;9.97;54.38
18985;BME280;9626;52.552;13.436;2023-04-25T09:57:19;100198.66;;;9.94;54.11
18985;BME280;9626;52.552;13.436;2023-04-25T09:59:50;100206.66;;;10.60;52.48
18985;BME280;9626;52.552;13.436;2023-04-25T10:02:18;100204.69;;;10.34;52.06
18985;BME280;9626;52.552;13.436;2023-04-25T10:04:51;100205.38;;;11.06;50.71
18985;BME280;9626;52.552;13.436;2023-04-25T10:07:19;100204.34;;;10.80;50.64
18985;BME280;9626;52.552;13.436;2023-04-25T10:09:54;100208.94;;;10.74;51.11
18985;BME280;9626;52.552;13.436;2023-04-25T10:12:24;100197.88;;;10.58;51.28
18985;BME280;9626;52.552;13.436;2023-04-25T10:14:52;100203.69;;;10.72;51.11
18985;BME280;9626;52.552;13.436;2023-04-25T10:17:19;100199.94;;;10.79;50.75
18985;BME280;9626;52.552;13.436;2023-04-25T10:19:49;100208.88;;;10.75;50.75
18985;BME280;9626;52.552;13.436;2023-04-25T10:24:56;100219.66;;;10.69;49.58
18985;BME280;9626;52.552;13.436;2023-04-25T10:27:22;100209.47;;;10.54;50.09
18985;BME280;9626;52.552;13.436;2023-04-25T10:30:09;100208.53;;;10.22;50.62
18985;BME280;9626;52.552;13.436;2023-04-25T10:32:38;100209.66;;;10.11;51.09
18985;BME280;9626;52.552;13.436;2023-04-25T10:35:30;100218.81;;;9.98;51.75
18985;BME280;9626;52.552;13.436;2023-04-25T10:40:23;100224.13;;;9.98;52.02
18985;BME280;9626;52.552;13.436;2023-04-25T10:42:54;100225.91;;;9.96;51.87
18985;BME280;9626;52.552;13.436;2023-04-25T10:45:22;100228.84;;;10.20;51.81
18985;BME280;9626;52.552;13.436;2023-04-25T10:47:48;100224.53;;;10.52;50.74
18985;BME280;9626;52.552;13.436;2023-04-25T10:50:14;100223.94;;;10.42;51.17
18985;BME280;9626;52.552;13.436;2023-04-25T10:52:42;100225.84;;;10.35;50.85
18985;BME280;9626;52.552;13.436;2023-04-25T10:55:08;100221.66;;;10.25;50.62
18985;BME280;9626;52.552;13.436;2023-04-25T10:57:43;100231.47;;;10.21;49.03
18985;BME280;9626;52.552;13.436;2023-04-25T11:00:19;100236.69;;;10.24;49.20
18985;BME280;9626;52.552;13.436;2023-04-25T11:02:48;100235.47;;;10.39;47.67
18985;BME280;9626;52.552;13.436;2023-04-25T11:05:29;100239.63;;;10.48;46.87
18985;BME280;9626;52.552;13.436;2023-04-25T11:07:55;100244.91;;;10.82;47.10
18985;BME280;9626;52.552;13.436;2023-04-25T11:10:29;100250.19;;;10.82;47.09
18985;BME280;9626;52.552;13.436;2023-04-25T11:12:56;100246.91;;;10.04;48.65
18985;BME280;9626;52.552;13.436;2023-04-25T11:15:23;100248.53;;;10.09;49.44
18985;BME280;9626;52.552;13.436;2023-04-25T11:17:52;100268.22;;;9.57;50.67
18985;BME280;9626;52.552;13.436;2023-04-25T11:20:19;100271.34;;;9.35;51.42
18985;BME280;9626;52.552;13.436;2023-04-25T11:22:46;100272.38;;;9.28;51.92
18985;BME280;9626;52.552;13.436;2023-04-25T11:25:13;100268.84;;;9.29;51.59
18985;BME280;9626;52.552;13.436;2023-04-25T11:27:57;100274.56;;;9.50;50.85
18985;BME280;9626;52.552;13.436;2023-04-25T11:30:24;100284.88;;;9.62;50.05
18985;BME280;9626;52.552;13.436;2023-04-25T11:32:51;100280.63;;;9.55;49.72
18985;BME280;9626;52.552;13.436;2023-04-25T11:35:18;100281.44;;;9.57;49.22
18985;BME280;9626;52.552;13.436;2023-04-25T11:37:45;100283.06;;;9.64;48.75
18985;BME280;9626;52.552;13.436;2023-04-25T11:40:11;100280.53;;;9.59;48.64
18985;BME280;9626;52.552;13.436;2023-04-25T11:42:47;100293.56;;;9.67;49.12
18985;BME280;9626;52.552;13.436;2023-04-25T11:45:14;100285.97;;;9.53;49.13
18985;BME280;9626;52.552;13.436;2023-04-25T11:47:40;100291.78;;;9.68;49.18
18985;BME280;9626;52.552;13.436;2023-04-25T11:50:07;100284.25;;;9.90;48.51
18985;BME280;9626;52.552;13.436;2023-04-25T11:55:13;100297.94;;;10.07;46.94
18985;BME280;9626;52.552;13.436;2023-04-25T11:57:41;100296.09;;;9.72;47.31
18985;BME280;9626;52.552;13.436;2023-04-25T12:00:12;100292.69;;;9.68;48.19
18985;BME280;9626;52.552;13.436;2023-04-25T12:02:47;100307.28;;;9.85;48.26
18985;BME280;9626;52.552;13.436;2023-04-25T12:05:14;100301.72;;;9.97;48.49
18985;BME280;9626;52.552;13.436;2023-04-25T12:07:42;100293.44;;;10.11;48.29
18985;BME280;9626;52.552;13.436;2023-04-25T12:10:12;100311.72;;;10.22;48.20
18985;BME280;9626;52.552;13.436;2023-04-25T12:12:44;100305.56;;;10.21;48.57
18985;BME280;9626;52.552;13.436;2023-04-25T12:15:17;100297.41;;;9.93;48.88
18985;BME280;9626;52.552;13.436;2023-04-25T12:17:46;100310.03;;;9.80;49.58
18985;BME280;9626;52.552;13.436;2023-04-25T12:20:15;100306.06;;;10.00;49.36
18985;BME280;9626;52.552;13.436;2023-04-25T12:22:44;100319.03;;;10.10;48.83
18985;BME280;9626;52.552;13.436;2023-04-25T12:25:11;100321.06;;;9.99;48.33
18985;BME280;9626;52.552;13.436;2023-04-25T12:27:39;100312.72;;;9.78;48.27
18985;BME280;9626;52.552;13.436;2023-04-25T12:30:09;100310.25;;;9.69;47.50
18985;BME280;9626;52.552;13.436;2023-04-25T12:32:37;100310.91;;;9.80;48.23
18985;BME280;9626;52.552;13.436;2023-04-25T12:35:05;100312.97;;;10.44;46.90
18985;BME280;9626;52.552;13.436;2023-04-25T12:37:32;100312.28;;;10.71;46.71
18985;BME280;9626;52.552;13.436;2023-04-25T12:39:58;100311.53;;;10.65;45.99
18985;BME280;9626;52.552;13.436;2023-04-25T12:42:24;100310.91;;;10.56;45.51
18985;BME280;9626;52.552;13.436;2023-04-25T12:44:50;100317.03;;;10.58;45.54
18985;BME280;9626;52.552;13.436;2023-04-25T12:47:16;100318.09;;;10.51;45.55
18985;BME280;9626;52.552;13.436;2023-04-25T12:49:42;100320.47;;;10.25;45.78
18985;BME280;9626;52.552;13.436;2023-04-25T12:52:08;100314.13;;;9.93;46.42
18985;BME280;9626;52.552;13.436;2023-04-25T12:54:34;100317.53;;;9.98;46.58
18985;BME280;9626;52.552;13.436;2023-04-25T12:57:01;100326.00;;;10.14;46.74
18985;BME280;9626;52.552;13.436;2023-04-25T12:59:28;100317.47;;;10.02;46.79
18985;BME280;9626;52.552;13.436;2023-04-25T13:01:54;100312.63;;;10.21;47.27